EVE weather

Harstad/Narvik Airport, Evenes
Evenes, Nordland, Norway

Public forecast

Using degrees Celsius for public forecast. Weather courtesy of forecast.io.

Current aviation weather report (METAR) for Harstad/Narvik Airport, Evenes

Retrieved 2020/01/21 22:20 UTC (12 minutes ago):

ENEV 212220Z 36003KT 9999 SCT045 M06/M06 Q0997 RMK WIND 1400FT 30009KT

Closest aviation forecast (TAF) to Harstad/Narvik Airport, Evenes

Closest forecast is And√łya Airport, 49.5 nm (91.6 km) NNW. Retrieved 2020/01/21 18:57 UTC (4 hours ago):

TAF TAF ENAN 211700Z 2118/2218 29015KT 9999 FEW015CB SCT030 TEMPO 2118/2218 1500 SHSNRAGS VV008 BECMG 2120/2123 35022KT